createdAt,value
2022-09-25T00:01:02.829Z,11.20
2022-09-25T00:03:31.249Z,11.90
2022-09-25T00:06:09.994Z,11.73
2022-09-25T00:08:37.289Z,12.70
2022-09-25T00:11:09.949Z,12.25
2022-09-25T00:13:37.651Z,12.38
2022-09-25T00:16:05.941Z,11.32
2022-09-25T00:18:51.547Z,12.20
2022-09-25T00:21:18.864Z,11.32
2022-09-25T00:23:46.141Z,12.05
2022-09-25T00:26:15.130Z,11.55
2022-09-25T00:28:43.414Z,11.23
2022-09-25T00:31:11.690Z,11.13
2022-09-25T00:33:38.613Z,9.82
2022-09-25T00:36:07.901Z,10.25
2022-09-25T00:38:36.895Z,10.82
2022-09-25T00:41:06.417Z,10.75
2022-09-25T00:43:45.078Z,11.05
2022-09-25T00:46:18.536Z,10.27
2022-09-25T00:49:10.193Z,11.95
2022-09-25T00:51:41.334Z,11.55
2022-09-25T00:54:16.566Z,12.38
2022-09-25T00:56:46.506Z,10.75
2022-09-25T00:59:22.927Z,11.98
2022-09-25T01:01:49.928Z,11.50
2022-09-25T01:04:17.970Z,10.98
2022-09-25T01:06:44.958Z,10.43
2022-09-25T01:09:12.190Z,9.30
2022-09-25T01:11:39.171Z,10.93
2022-09-25T01:14:07.606Z,10.18
2022-09-25T01:17:00.355Z,9.73
2022-09-25T01:19:55.891Z,10.02
2022-09-25T01:22:40.957Z,10.65
2022-09-25T01:25:07.809Z,10.75
2022-09-25T01:27:43.434Z,10.70
2022-09-25T01:30:18.850Z,9.75
2022-09-25T01:32:55.181Z,10.63
2022-09-25T01:35:58.261Z,10.25
2022-09-25T01:38:36.109Z,10.80
2022-09-25T01:41:24.624Z,10.38
2022-09-25T01:44:02.609Z,10.52
2022-09-25T01:46:35.190Z,10.30
2022-09-25T01:49:10.969Z,9.88
2022-09-25T01:51:45.451Z,9.88
2022-09-25T01:54:17.901Z,9.98
2022-09-25T01:56:55.632Z,10.10
2022-09-25T01:59:44.573Z,9.15
2022-09-25T02:02:15.771Z,9.52
2022-09-25T02:04:49.443Z,10.15
2022-09-25T02:07:22.227Z,9.63
2022-09-25T02:09:55.383Z,9.18
2022-09-25T02:12:33.422Z,9.10
2022-09-25T02:15:08.231Z,8.18
2022-09-25T02:18:08.785Z,7.35
2022-09-25T02:20:37.482Z,7.13
2022-09-25T02:23:29.491Z,6.82
2022-09-25T02:26:05.710Z,6.72
2022-09-25T02:28:33.277Z,7.55
2022-09-25T02:31:02.638Z,7.55
2022-09-25T02:33:30.019Z,7.53
2022-09-25T02:35:58.778Z,8.05
2022-09-25T02:38:25.749Z,7.93
2022-09-25T02:40:57.288Z,7.63
2022-09-25T02:43:39.572Z,7.35
2022-09-25T02:46:15.151Z,7.53
2022-09-25T02:48:56.833Z,7.53
2022-09-25T02:51:33.229Z,6.93
2022-09-25T02:54:13.177Z,7.18
2022-09-25T02:56:49.819Z,5.47
2022-09-25T02:59:23.350Z,5.45
2022-09-25T03:01:52.151Z,6.75
2022-09-25T03:04:20.125Z,5.65
2022-09-25T03:06:47.571Z,5.35
2022-09-25T03:09:18.661Z,4.47
2022-09-25T03:11:46.012Z,3.63
2022-09-25T03:14:12.988Z,4.75
2022-09-25T03:16:50.347Z,4.13
2022-09-25T03:19:19.866Z,4.43
2022-09-25T03:21:47.701Z,2.70
2022-09-25T03:24:15.484Z,2.90
2022-09-25T03:26:42.918Z,3.95
2022-09-25T03:29:10.768Z,3.80
2022-09-25T03:31:37.691Z,2.70
2022-09-25T03:34:04.719Z,2.25
2022-09-25T03:36:31.788Z,2.30
2022-09-25T03:38:59.630Z,2.70
2022-09-25T03:41:29.518Z,2.70
2022-09-25T03:43:57.371Z,2.40
2022-09-25T03:46:26.905Z,2.30
2022-09-25T03:48:55.100Z,2.50
2022-09-25T03:51:22.737Z,2.80
2022-09-25T03:53:50.536Z,2.33
2022-09-25T03:56:23.513Z,3.00
2022-09-25T03:58:52.048Z,2.90
2022-09-25T04:01:22.120Z,2.75
2022-09-25T04:03:49.600Z,2.70
2022-09-25T04:06:18.927Z,3.10
2022-09-25T04:08:47.822Z,3.15
2022-09-25T04:11:16.618Z,2.55
2022-09-25T04:13:46.911Z,3.08
2022-09-25T04:16:16.270Z,3.22
2022-09-25T04:18:43.543Z,2.22
2022-09-25T04:21:13.408Z,2.70
2022-09-25T04:23:41.090Z,3.33
2022-09-25T04:26:08.207Z,3.17
2022-09-25T04:28:35.726Z,3.20
2022-09-25T04:31:03.959Z,2.65
2022-09-25T04:33:46.625Z,2.50
2022-09-25T04:36:14.639Z,2.80
2022-09-25T04:38:41.889Z,2.58
2022-09-25T04:41:08.890Z,2.58
2022-09-25T04:43:36.351Z,2.40
2022-09-25T04:46:05.987Z,2.10
2022-09-25T04:48:33.458Z,2.00
2022-09-25T04:51:00.956Z,2.30
2022-09-25T04:53:30.067Z,2.20
2022-09-25T04:56:05.729Z,2.00
2022-09-25T04:58:33.950Z,2.38
2022-09-25T05:01:09.240Z,2.03
2022-09-25T05:03:36.643Z,2.28
2022-09-25T05:06:04.661Z,5.18
2022-09-25T05:08:31.661Z,5.30
2022-09-25T05:10:58.651Z,3.95
2022-09-25T05:13:25.651Z,3.78
2022-09-25T05:15:54.818Z,3.33
2022-09-25T05:18:24.215Z,3.15
2022-09-25T05:20:53.559Z,2.90
2022-09-25T05:23:21.372Z,3.10
2022-09-25T05:26:03.723Z,2.70
2022-09-25T05:28:31.759Z,3.03
2022-09-25T05:31:05.124Z,2.50
2022-09-25T05:33:33.273Z,3.15
2022-09-25T05:36:07.723Z,3.20
2022-09-25T05:38:36.772Z,3.30
2022-09-25T05:41:08.873Z,2.70
2022-09-25T05:43:43.261Z,3.20
2022-09-25T05:46:11.932Z,3.20
2022-09-25T05:48:39.040Z,2.80
2022-09-25T05:51:06.656Z,3.03
2022-09-25T05:53:33.863Z,3.08
2022-09-25T05:56:03.582Z,3.00
2022-09-25T05:58:32.231Z,3.58
2022-09-25T06:01:04.090Z,3.22
2022-09-25T06:03:31.265Z,3.25
2022-09-25T06:06:02.201Z,3.20
2022-09-25T06:08:33.294Z,3.80
2022-09-25T06:11:03.545Z,4.22
2022-09-25T06:13:34.931Z,4.03
2022-09-25T06:16:03.145Z,6.20
2022-09-25T06:18:30.172Z,5.07
2022-09-25T06:21:02.792Z,4.53
2022-09-25T06:23:30.562Z,4.30
2022-09-25T06:26:05.660Z,4.00
2022-09-25T06:28:33.018Z,4.90
2022-09-25T06:31:01.570Z,5.00
2022-09-25T06:33:28.629Z,4.00
2022-09-25T06:35:55.528Z,4.20
2022-09-25T06:38:22.883Z,6.45
2022-09-25T06:40:50.223Z,6.88
2022-09-25T06:43:17.699Z,4.90
2022-09-25T06:45:44.596Z,5.53
2022-09-25T06:48:16.516Z,5.10
2022-09-25T06:50:55.374Z,5.07
2022-09-25T06:53:24.158Z,5.43
2022-09-25T06:55:52.050Z,4.72
2022-09-25T06:58:21.913Z,6.68
2022-09-25T07:00:50.522Z,15.88
2022-09-25T07:03:36.463Z,15.32
2022-09-25T07:06:05.106Z,7.63
2022-09-25T07:08:32.379Z,5.95
2022-09-25T07:11:00.102Z,6.30
2022-09-25T07:13:30.247Z,7.53
2022-09-25T07:15:59.612Z,6.07
2022-09-25T07:18:28.542Z,7.07
2022-09-25T07:21:10.976Z,5.25
2022-09-25T07:23:38.748Z,6.57
2022-09-25T07:26:36.215Z,6.72
2022-09-25T07:29:06.665Z,6.05
2022-09-25T07:31:35.222Z,6.80
2022-09-25T07:34:05.938Z,6.63
2022-09-25T07:36:34.033Z,8.52
2022-09-25T07:39:00.975Z,7.50
2022-09-25T07:41:28.271Z,6.63
2022-09-25T07:44:24.255Z,8.93
2022-09-25T07:46:47.003Z,8.00
2022-09-25T07:49:14.510Z,7.85
2022-09-25T07:51:41.605Z,7.57
2022-09-25T07:54:08.864Z,6.55
2022-09-25T07:56:38.273Z,6.90
2022-09-25T07:59:05.690Z,7.47
2022-09-25T08:01:32.760Z,7.20
2022-09-25T08:03:59.776Z,9.02
2022-09-25T08:06:26.767Z,8.63
2022-09-25T08:08:53.769Z,7.88
2022-09-25T08:11:20.740Z,8.07
2022-09-25T08:13:48.056Z,8.13
2022-09-25T08:16:17.658Z,8.82
2022-09-25T08:18:47.426Z,10.85
2022-09-25T08:21:17.304Z,8.50
2022-09-25T08:23:49.464Z,9.20
2022-09-25T08:26:17.992Z,10.88
2022-09-25T08:28:45.607Z,10.65
2022-09-25T08:31:15.028Z,11.27
2022-09-25T08:33:46.833Z,11.65
2022-09-25T08:36:13.918Z,11.55
2022-09-25T08:38:47.347Z,11.48
2022-09-25T08:41:19.860Z,11.20
2022-09-25T08:43:59.013Z,11.35
2022-09-25T08:46:59.630Z,11.20
2022-09-25T08:49:40.912Z,13.85
2022-09-25T08:52:13.714Z,11.30
2022-09-25T08:57:39.460Z,10.88
2022-09-25T09:00:13.506Z,13.30
2022-09-25T09:02:45.442Z,11.32
2022-09-25T09:05:41.982Z,10.85
2022-09-25T09:08:20.468Z,11.75
2022-09-25T09:10:53.277Z,10.73
2022-09-25T09:15:54.675Z,11.63
2022-09-25T09:18:27.630Z,14.93
2022-09-25T09:21:01.291Z,13.45
2022-09-25T09:23:34.980Z,12.30
2022-09-25T09:26:05.321Z,11.05
2022-09-25T09:29:03.571Z,10.57
2022-09-25T09:31:53.623Z,11.00
2022-09-25T09:37:44.873Z,11.30
2022-09-25T09:40:39.617Z,14.10
2022-09-25T09:43:20.381Z,10.88
2022-09-25T09:45:57.790Z,11.50
2022-09-25T09:48:43.473Z,11.85
2022-09-25T09:51:28.547Z,12.57
2022-09-25T09:54:10.690Z,14.10
2022-09-25T09:56:38.355Z,12.63
2022-09-25T09:59:18.687Z,13.23
2022-09-25T10:01:52.451Z,11.20
2022-09-25T10:04:26.797Z,11.55
2022-09-25T10:07:03.396Z,12.15
2022-09-25T10:09:30.517Z,11.45
2022-09-25T10:12:25.572Z,10.68
2022-09-25T10:14:53.170Z,10.55
2022-09-25T10:17:23.656Z,11.63
2022-09-25T10:20:18.093Z,10.30
2022-09-25T10:22:47.222Z,11.05
2022-09-25T10:25:16.285Z,10.30
2022-09-25T10:27:50.032Z,11.15
2022-09-25T10:30:21.973Z,12.07
2022-09-25T10:32:57.914Z,13.75
2022-09-25T10:35:28.522Z,8.73
2022-09-25T10:38:01.336Z,11.30
2022-09-25T10:40:34.086Z,8.13
2022-09-25T10:43:12.236Z,7.65
2022-09-25T10:45:40.975Z,7.20
2022-09-25T10:48:47.970Z,7.32
2022-09-25T10:51:18.305Z,8.05
2022-09-25T10:53:46.645Z,7.90
2022-09-25T10:56:36.166Z,8.98
2022-09-25T10:59:03.802Z,7.88
2022-09-25T11:01:51.416Z,7.82
2022-09-25T11:04:34.427Z,8.00
2022-09-25T11:07:07.739Z,9.07
2022-09-25T11:09:36.785Z,8.70
2022-09-25T11:12:26.143Z,7.53
2022-09-25T11:15:08.966Z,7.43
2022-09-25T11:17:42.150Z,7.57
2022-09-25T11:20:31.889Z,6.95
2022-09-25T11:23:20.122Z,6.55
2022-09-25T11:25:50.831Z,7.38
2022-09-25T11:28:20.730Z,5.85
2022-09-25T11:31:28.211Z,6.03
2022-09-25T11:34:32.912Z,4.90
2022-09-25T11:37:15.071Z,4.28
2022-09-25T11:40:16.024Z,7.50
2022-09-25T11:42:53.482Z,4.72
2022-09-25T11:45:36.659Z,4.43
2022-09-25T11:48:03.604Z,4.00
2022-09-25T11:50:45.529Z,4.10
2022-09-25T11:53:33.575Z,4.68
2022-09-25T11:56:35.546Z,3.55
2022-09-25T11:59:18.066Z,3.42
2022-09-25T12:05:24.244Z,3.40
2022-09-25T12:08:24.404Z,2.67
2022-09-25T12:11:03.890Z,4.30
2022-09-25T12:13:54.980Z,4.30
2022-09-25T12:16:28.989Z,3.67
2022-09-25T12:19:29.099Z,2.67
2022-09-25T12:22:01.162Z,2.90
2022-09-25T12:24:52.665Z,2.22
2022-09-25T12:27:26.722Z,2.97
2022-09-25T12:30:06.937Z,2.80
2022-09-25T12:33:07.478Z,2.97
2022-09-25T12:35:56.856Z,2.50
2022-09-25T12:38:29.218Z,3.60
2022-09-25T12:41:33.498Z,2.60
2022-09-25T12:44:07.303Z,2.47
2022-09-25T12:46:49.607Z,3.42
2022-09-25T12:49:38.819Z,1.67
2022-09-25T12:52:14.968Z,2.63
2022-09-25T12:54:59.321Z,3.38
2022-09-25T12:58:01.960Z,2.45
2022-09-25T13:00:33.648Z,3.10
2022-09-25T13:03:22.993Z,3.15
2022-09-25T13:05:52.299Z,1.60
2022-09-25T13:08:25.748Z,2.20
2022-09-25T13:11:01.507Z,2.50
2022-09-25T13:13:36.517Z,2.05
2022-09-25T13:16:04.500Z,2.38
2022-09-25T13:18:34.287Z,2.42
2022-09-25T13:21:38.374Z,2.58
2022-09-25T13:24:14.190Z,2.17
2022-09-25T13:26:48.738Z,2.63
2022-09-25T13:29:35.530Z,2.85
2022-09-25T13:32:13.488Z,2.78
2022-09-25T13:34:42.157Z,2.70
2022-09-25T13:37:12.064Z,2.33
2022-09-25T13:40:06.881Z,2.63
2022-09-25T13:42:38.018Z,2.40
2022-09-25T13:45:32.513Z,2.47
2022-09-25T13:48:07.566Z,2.40
2022-09-25T13:50:38.130Z,2.20
2022-09-25T13:53:18.456Z,2.75
2022-09-25T13:55:48.883Z,2.20
2022-09-25T13:58:20.299Z,2.67
2022-09-25T14:00:50.406Z,3.38
2022-09-25T14:03:36.190Z,5.03
2022-09-25T14:06:05.228Z,5.10
2022-09-25T14:08:35.257Z,4.97
2022-09-25T14:11:05.622Z,3.80
2022-09-25T14:13:34.251Z,3.50
2022-09-25T14:16:04.839Z,4.15
2022-09-25T14:18:41.026Z,6.38
2022-09-25T14:21:10.147Z,6.22
2022-09-25T14:23:58.227Z,5.70
2022-09-25T14:26:27.459Z,5.63
2022-09-25T14:28:56.559Z,4.90
2022-09-25T14:31:32.816Z,4.30
2022-09-25T14:34:12.428Z,3.22
2022-09-25T14:36:42.371Z,3.75
2022-09-25T14:39:27.801Z,2.97
2022-09-25T14:42:23.369Z,4.38
2022-09-25T14:45:04.057Z,4.72
2022-09-25T14:47:38.161Z,4.15
2022-09-25T14:50:06.475Z,3.50
2022-09-25T14:52:36.989Z,5.75
2022-09-25T14:55:04.599Z,7.05
2022-09-25T14:57:34.359Z,7.57
2022-09-25T15:00:05.843Z,7.63
2022-09-25T15:02:41.996Z,11.57
2022-09-25T15:05:27.090Z,7.63
2022-09-25T15:07:59.949Z,6.90
2022-09-25T15:10:38.475Z,6.47
2022-09-25T15:13:07.727Z,6.45
2022-09-25T15:15:35.443Z,5.95
2022-09-25T15:18:02.885Z,5.00
2022-09-25T15:20:34.865Z,4.97
2022-09-25T15:23:08.779Z,6.60
2022-09-25T15:25:46.042Z,7.97
2022-09-25T15:28:18.024Z,6.78
2022-09-25T15:30:46.602Z,7.15
2022-09-25T15:33:31.462Z,8.45
2022-09-25T15:36:00.784Z,6.75
2022-09-25T15:38:38.988Z,6.05
2022-09-25T15:41:12.998Z,6.40
2022-09-25T15:43:39.912Z,5.60
2022-09-25T15:46:10.296Z,7.45
2022-09-25T15:48:50.263Z,8.02
2022-09-25T15:51:22.499Z,6.65
2022-09-25T15:53:58.713Z,6.78
2022-09-25T15:56:29.026Z,6.95
2022-09-25T15:59:03.043Z,7.07
2022-09-25T16:01:52.054Z,6.68
2022-09-25T16:04:39.188Z,7.45
2022-09-25T16:07:33.553Z,12.80
2022-09-25T16:10:09.592Z,8.13
2022-09-25T16:12:42.596Z,9.70
2022-09-25T16:15:27.557Z,11.43
2022-09-25T16:17:55.330Z,15.68
2022-09-25T16:20:25.162Z,8.80
2022-09-25T16:22:57.697Z,9.15
2022-09-25T16:25:27.873Z,12.55
2022-09-25T16:28:00.963Z,9.68
2022-09-25T16:30:28.252Z,12.45
2022-09-25T16:32:58.709Z,10.85
2022-09-25T16:35:57.474Z,10.10
2022-09-25T16:38:41.476Z,11.38
2022-09-25T16:41:22.492Z,9.40
2022-09-25T16:44:19.073Z,12.95
2022-09-25T16:46:52.324Z,11.02
2022-09-25T16:49:22.822Z,12.00
2022-09-25T16:51:52.320Z,14.02
2022-09-25T16:54:21.599Z,12.73
2022-09-25T16:56:49.149Z,10.73
2022-09-25T16:59:21.143Z,12.00
2022-09-25T17:01:50.321Z,19.48
2022-09-25T17:04:18.219Z,21.08
2022-09-25T17:06:48.429Z,19.88
2022-09-25T17:09:17.300Z,17.92
2022-09-25T17:11:50.270Z,14.95
2022-09-25T17:14:25.194Z,16.85
2022-09-25T17:16:53.785Z,18.92
2022-09-25T17:19:21.696Z,16.67
2022-09-25T17:21:51.619Z,21.17
2022-09-25T17:24:20.396Z,18.30
2022-09-25T17:26:47.682Z,16.40
2022-09-25T17:29:14.720Z,15.55
2022-09-25T17:31:41.732Z,16.08
2022-09-25T17:34:28.538Z,14.73
2022-09-25T17:36:57.923Z,21.98
2022-09-25T17:39:24.873Z,44.95
2022-09-25T17:41:52.282Z,46.45
2022-09-25T17:44:23.447Z,49.80
2022-09-25T17:46:51.852Z,45.13
2022-09-25T17:49:18.926Z,27.52
2022-09-25T17:51:46.036Z,25.95
2022-09-25T17:54:13.557Z,30.83
2022-09-25T17:56:42.723Z,23.90
2022-09-25T17:59:10.022Z,28.13
2022-09-25T18:01:39.806Z,24.75
2022-09-25T18:04:24.194Z,23.73
2022-09-25T18:06:52.131Z,23.13
2022-09-25T18:09:19.503Z,23.38
2022-09-25T18:11:46.705Z,23.83
2022-09-25T18:14:15.055Z,24.23
2022-09-25T18:16:44.272Z,20.77
2022-09-25T18:19:39.451Z,21.02
2022-09-25T18:22:19.571Z,20.02
2022-09-25T18:24:56.770Z,23.75
2022-09-25T18:27:29.547Z,21.45
2022-09-25T18:29:56.727Z,24.90
2022-09-25T18:32:24.307Z,22.38
2022-09-25T18:34:51.772Z,26.52
2022-09-25T18:37:19.024Z,25.70
2022-09-25T18:39:48.135Z,28.15
2022-09-25T18:42:15.242Z,24.90
2022-09-25T18:44:43.190Z,26.23
2022-09-25T18:47:10.994Z,26.92
2022-09-25T18:49:38.049Z,25.23
2022-09-25T18:52:05.574Z,26.55
2022-09-25T18:54:32.559Z,24.92
2022-09-25T18:56:59.452Z,29.40
2022-09-25T18:59:26.879Z,29.67
2022-09-25T19:01:56.185Z,25.95
2022-09-25T19:04:25.792Z,25.88
2022-09-25T19:06:53.110Z,23.38
2022-09-25T19:09:24.550Z,22.50
2022-09-25T19:11:52.158Z,26.17
2022-09-25T19:14:20.137Z,26.02
2022-09-25T19:16:47.606Z,24.85
2022-09-25T19:19:14.522Z,26.23
2022-09-25T19:21:45.061Z,26.38
2022-09-25T19:24:12.945Z,25.20
2022-09-25T19:26:42.852Z,35.20
2022-09-25T19:29:10.371Z,23.83
2022-09-25T19:31:37.430Z,21.02
2022-09-25T19:34:05.305Z,21.83
2022-09-25T19:36:34.770Z,20.65
2022-09-25T19:39:02.295Z,36.28
2022-09-25T19:41:34.309Z,46.00
2022-09-25T19:44:12.934Z,39.15
2022-09-25T19:46:42.138Z,23.80
2022-09-25T19:49:10.052Z,21.92
2022-09-25T19:51:37.810Z,20.73
2022-09-25T19:54:07.545Z,23.00
2022-09-25T19:56:40.675Z,23.20
2022-09-25T19:59:18.233Z,21.48
2022-09-25T20:01:45.974Z,22.13
2022-09-25T20:04:18.464Z,21.13
2022-09-25T20:09:14.062Z,19.60
2022-09-25T20:11:41.351Z,24.27
2022-09-25T20:14:08.418Z,24.15
2022-09-25T20:16:37.959Z,23.85
2022-09-25T20:19:06.645Z,26.25
2022-09-25T20:21:36.247Z,30.67
2022-09-25T20:24:05.396Z,31.98
2022-09-25T20:26:33.156Z,36.28
2022-09-25T20:29:10.255Z,37.20
2022-09-25T20:31:38.984Z,37.70
2022-09-25T20:34:06.715Z,33.97
2022-09-25T20:36:36.350Z,55.60
2022-09-25T20:39:03.365Z,29.52
2022-09-25T20:41:30.422Z,24.02
2022-09-25T20:43:58.490Z,18.58
2022-09-25T20:46:26.668Z,17.73
2022-09-25T20:48:57.779Z,17.20
2022-09-25T20:51:30.964Z,18.02
2022-09-25T20:54:00.797Z,17.25
2022-09-25T20:56:29.988Z,18.65
2022-09-25T20:58:57.996Z,16.48
2022-09-25T21:01:28.491Z,19.55
2022-09-25T21:03:58.639Z,19.58
2022-09-25T21:06:32.025Z,22.73
2022-09-25T21:09:01.202Z,20.70
2022-09-25T21:11:30.374Z,19.77
2022-09-25T21:13:59.232Z,20.55
2022-09-25T21:16:28.238Z,21.15
2022-09-25T21:19:00.840Z,20.55
2022-09-25T21:21:28.654Z,20.63
2022-09-25T21:23:57.130Z,26.25
2022-09-25T21:26:26.542Z,24.25
2022-09-25T21:28:55.684Z,24.95
2022-09-25T21:31:29.050Z,24.73
2022-09-25T21:33:57.581Z,23.20
2022-09-25T21:36:26.154Z,24.13
2022-09-25T21:38:53.266Z,22.10
2022-09-25T21:41:22.823Z,20.27
2022-09-25T21:43:54.341Z,19.67
2022-09-25T21:46:21.784Z,21.38
2022-09-25T21:48:57.993Z,22.35
2022-09-25T21:51:27.494Z,21.98
2022-09-25T21:53:55.382Z,25.60
2022-09-25T21:56:25.463Z,24.33
2022-09-25T21:58:54.463Z,23.45
2022-09-25T22:01:26.742Z,22.52
2022-09-25T22:03:57.132Z,21.40
2022-09-25T22:06:51.478Z,21.38
2022-09-25T22:09:21.745Z,21.73
2022-09-25T22:11:49.183Z,23.05
2022-09-25T22:14:17.332Z,22.38
2022-09-25T22:16:47.414Z,23.27
2022-09-25T22:19:26.232Z,21.75
2022-09-25T22:21:54.955Z,21.23
2022-09-25T22:24:22.788Z,21.30
2022-09-25T22:26:51.711Z,20.33
2022-09-25T22:29:20.608Z,21.55
2022-09-25T22:31:47.978Z,18.63
2022-09-25T22:34:26.695Z,24.17
2022-09-25T22:36:58.977Z,22.65
2022-09-25T22:39:28.068Z,28.95
2022-09-25T22:41:55.763Z,31.88
2022-09-25T22:44:23.517Z,29.48
2022-09-25T22:46:50.586Z,29.67
2022-09-25T22:49:17.614Z,26.30
2022-09-25T22:51:45.004Z,23.50
2022-09-25T22:54:15.888Z,22.98
2022-09-25T22:56:43.558Z,25.48
2022-09-25T22:59:18.303Z,26.98
2022-09-25T23:01:49.580Z,23.80
2022-09-25T23:04:19.131Z,21.52
2022-09-25T23:06:46.440Z,21.45
2022-09-25T23:09:16.023Z,20.77
2022-09-25T23:11:43.909Z,24.77
2022-09-25T23:14:17.305Z,21.35
2022-09-25T23:16:52.266Z,21.15
2022-09-25T23:19:20.375Z,23.25
2022-09-25T23:21:48.356Z,19.83
2022-09-25T23:24:17.625Z,18.27
2022-09-25T23:26:45.770Z,19.15
2022-09-25T23:29:14.791Z,20.08
2022-09-25T23:31:42.387Z,19.80
2022-09-25T23:34:09.890Z,20.73
2022-09-25T23:36:37.115Z,21.33
2022-09-25T23:39:05.786Z,21.52
2022-09-25T23:41:39.398Z,20.00
2022-09-25T23:44:08.511Z,19.55
2022-09-25T23:46:38.452Z,19.52
2022-09-25T23:49:05.870Z,19.67
2022-09-25T23:51:33.199Z,20.13
2022-09-25T23:54:01.303Z,21.80
2022-09-25T23:56:30.961Z,20.05
2022-09-25T23:58:59.958Z,21.05
